Terminal Aerodrome Forecast
Issued by NWS

Home | Current Version | Previous Version | Text Only | Print | Product List | Glossary On
Versions: 1 2 3 4 5 6 7 8 9 10 11 12 13 14 15 16 17 18 19 20
000
FTUS43 KGRR 310500
TAFJXN
TAF
KJXN 310540Z 3106/0106 21005KT P6SM OVC040
     FM310800 24008KT P6SM -SHRA OVC040
     FM311000 28010KT P6SM -SHRA OVC025
     FM311200 30010G18KT 5SM -SHRA BR OVC015
     FM312000 36020G34KT 2SM -SHRASN BR OVC010
     FM312200 36020G34KT P6SM VCSH BKN025
     FM010200 35014G22KT P6SM VCSH OVC025=

USA.gov is the U.S. government's official web portal to all federal, state and local government web resources and services.